sensor_id;sensor_type;location;lat;lon;timestamp;pressure;altitude;pressure_sealevel;temperature;humidity
74524;BME280;63074;44.696;10.358;2022-10-26T00:01:22;100578.06;;;15.58;100.00
74524;BME280;63074;44.696;10.358;2022-10-26T00:03:48;100586.19;;;15.63;100.00
74524;BME280;63074;44.696;10.358;2022-10-26T00:06:18;100584.31;;;15.64;100.00
74524;BME280;63074;44.696;10.358;2022-10-26T00:08:44;100584.06;;;15.65;100.00
74524;BME280;63074;44.696;10.358;2022-10-26T00:11:11;100584.75;;;15.56;100.00
74524;BME280;63074;44.696;10.358;2022-10-26T00:13:38;100569.44;;;15.66;100.00
74524;BME280;63074;44.696;10.358;2022-10-26T00:16:13;100579.56;;;15.76;100.00
74524;BME280;63074;44.696;10.358;2022-10-26T00:18:39;100575.38;;;15.63;100.00
74524;BME280;63074;44.696;10.358;2022-10-26T00:21:05;100592.69;;;15.62;100.00
74524;BME280;63074;44.696;10.358;2022-10-26T00:23:31;100572.72;;;15.68;100.00
74524;BME280;63074;44.696;10.358;2022-10-26T00:25:57;100582.31;;;15.54;100.00
74524;BME280;63074;44.696;10.358;2022-10-26T00:28:23;100571.44;;;15.27;100.00
74524;BME280;63074;44.696;10.358;2022-10-26T00:30:48;100570.94;;;15.30;100.00
74524;BME280;63074;44.696;10.358;2022-10-26T00:33:14;100579.25;;;15.24;100.00
74524;BME280;63074;44.696;10.358;2022-10-26T00:35:39;100576.41;;;15.35;100.00
74524;BME280;63074;44.696;10.358;2022-10-26T00:38:05;100577.41;;;15.51;100.00
74524;BME280;63074;44.696;10.358;2022-10-26T00:40:30;100570.28;;;15.45;100.00
74524;BME280;63074;44.696;10.358;2022-10-26T00:42:56;100572.88;;;15.35;100.00
74524;BME280;63074;44.696;10.358;2022-10-26T00:45:28;100563.94;;;15.34;100.00
74524;BME280;63074;44.696;10.358;2022-10-26T00:48:05;100550.06;;;15.31;100.00
74524;BME280;63074;44.696;10.358;2022-10-26T00:50:36;100570.84;;;14.98;100.00
74524;BME280;63074;44.696;10.358;2022-10-26T00:53:04;100564.47;;;15.09;100.00
74524;BME280;63074;44.696;10.358;2022-10-26T00:55:33;100561.13;;;15.24;100.00
74524;BME280;63074;44.696;10.358;2022-10-26T00:58:03;100562.31;;;15.11;100.00
74524;BME280;63074;44.696;10.358;2022-10-26T01:00:30;100560.31;;;15.02;100.00
74524;BME280;63074;44.696;10.358;2022-10-26T01:02:57;100556.97;;;15.16;100.00
74524;BME280;63074;44.696;10.358;2022-10-26T01:05:25;100556.03;;;15.28;100.00
74524;BME280;63074;44.696;10.358;2022-10-26T01:07:52;100557.78;;;15.17;100.00
74524;BME280;63074;44.696;10.358;2022-10-26T01:10:18;100559.25;;;15.25;100.00
74524;BME280;63074;44.696;10.358;2022-10-26T01:12:44;100553.88;;;15.30;100.00
74524;BME280;63074;44.696;10.358;2022-10-26T01:15:10;100557.13;;;15.32;100.00
74524;BME280;63074;44.696;10.358;2022-10-26T01:17:53;100547.19;;;15.37;100.00
74524;BME280;63074;44.696;10.358;2022-10-26T01:23:31;100556.28;;;15.04;100.00
74524;BME280;63074;44.696;10.358;2022-10-26T01:26:23;100557.72;;;15.12;100.00
74524;BME280;63074;44.696;10.358;2022-10-26T01:32:01;100563.47;;;14.94;100.00
74524;BME280;63074;44.696;10.358;2022-10-26T01:34:36;100568.25;;;15.08;100.00
74524;BME280;63074;44.696;10.358;2022-10-26T01:37:12;100556.66;;;15.13;100.00
74524;BME280;63074;44.696;10.358;2022-10-26T01:40:16;100559.06;;;15.09;100.00
74524;BME280;63074;44.696;10.358;2022-10-26T01:42:48;100550.75;;;15.16;100.00
74524;BME280;63074;44.696;10.358;2022-10-26T01:45:16;100544.81;;;15.19;100.00
74524;BME280;63074;44.696;10.358;2022-10-26T01:47:43;100539.84;;;15.11;100.00
74524;BME280;63074;44.696;10.358;2022-10-26T01:50:10;100528.66;;;15.02;100.00
74524;BME280;63074;44.696;10.358;2022-10-26T01:52:36;100536.94;;;14.74;100.00
74524;BME280;63074;44.696;10.358;2022-10-26T01:55:35;100550.47;;;14.74;100.00
74524;BME280;63074;44.696;10.358;2022-10-26T01:57:52;100549.63;;;14.90;100.00
74524;BME280;63074;44.696;10.358;2022-10-26T02:00:20;100554.22;;;14.90;100.00
74524;BME280;63074;44.696;10.358;2022-10-26T02:02:54;100549.78;;;15.05;100.00
74524;BME280;63074;44.696;10.358;2022-10-26T02:05:32;100543.38;;;15.11;100.00
74524;BME280;63074;44.696;10.358;2022-10-26T02:08:37;100539.94;;;14.94;100.00
74524;BME280;63074;44.696;10.358;2022-10-26T02:13:44;100559.94;;;14.93;100.00
74524;BME280;63074;44.696;10.358;2022-10-26T02:21:18;100563.78;;;14.97;100.00
74524;BME280;63074;44.696;10.358;2022-10-26T02:23:47;100560.25;;;15.18;100.00
74524;BME280;63074;44.696;10.358;2022-10-26T02:26:15;100558.69;;;15.23;100.00
74524;BME280;63074;44.696;10.358;2022-10-26T02:28:47;100559.75;;;15.22;100.00
74524;BME280;63074;44.696;10.358;2022-10-26T02:31:14;100556.03;;;15.28;100.00
74524;BME280;63074;44.696;10.358;2022-10-26T02:33:45;100554.47;;;15.37;100.00
74524;BME280;63074;44.696;10.358;2022-10-26T02:36:14;100554.41;;;15.32;100.00
74524;BME280;63074;44.696;10.358;2022-10-26T02:38:41;100553.69;;;15.14;100.00
74524;BME280;63074;44.696;10.358;2022-10-26T02:41:09;100550.09;;;15.09;100.00
74524;BME280;63074;44.696;10.358;2022-10-26T02:43:47;100553.56;;;15.04;100.00
74524;BME280;63074;44.696;10.358;2022-10-26T02:46:17;100539.28;;;15.09;100.00
74524;BME280;63074;44.696;10.358;2022-10-26T02:48:44;100542.88;;;15.14;100.00
74524;BME280;63074;44.696;10.358;2022-10-26T02:51:11;100542.75;;;15.04;100.00
74524;BME280;63074;44.696;10.358;2022-10-26T02:56:33;100528.97;;;15.06;100.00
74524;BME280;63074;44.696;10.358;2022-10-26T02:59:03;100529.53;;;15.08;100.00
74524;BME280;63074;44.696;10.358;2022-10-26T03:01:30;100520.75;;;14.96;100.00
74524;BME280;63074;44.696;10.358;2022-10-26T03:03:58;100532.44;;;15.01;100.00
74524;BME280;63074;44.696;10.358;2022-10-26T03:06:25;100535.03;;;14.91;100.00
74524;BME280;63074;44.696;10.358;2022-10-26T03:08:50;100539.16;;;14.77;100.00
74524;BME280;63074;44.696;10.358;2022-10-26T03:11:16;100541.19;;;14.65;100.00
74524;BME280;63074;44.696;10.358;2022-10-26T03:13:42;100539.38;;;14.70;100.00
74524;BME280;63074;44.696;10.358;2022-10-26T03:16:08;100543.00;;;14.81;100.00
74524;BME280;63074;44.696;10.358;2022-10-26T03:18:34;100548.97;;;14.83;100.00
74524;BME280;63074;44.696;10.358;2022-10-26T03:20:59;100544.78;;;14.92;100.00
74524;BME280;63074;44.696;10.358;2022-10-26T03:23:25;100540.88;;;14.83;100.00
74524;BME280;63074;44.696;10.358;2022-10-26T03:25:50;100548.97;;;14.83;100.00
74524;BME280;63074;44.696;10.358;2022-10-26T03:28:15;100549.88;;;14.89;100.00
74524;BME280;63074;44.696;10.358;2022-10-26T03:30:41;100547.97;;;14.67;100.00
74524;BME280;63074;44.696;10.358;2022-10-26T03:33:06;100552.19;;;14.80;100.00
74524;BME280;63074;44.696;10.358;2022-10-26T03:35:32;100546.47;;;14.98;100.00
74524;BME280;63074;44.696;10.358;2022-10-26T03:37:57;100540.06;;;14.82;100.00
74524;BME280;63074;44.696;10.358;2022-10-26T03:40:23;100539.69;;;14.96;100.00
74524;BME280;63074;44.696;10.358;2022-10-26T03:42:48;100533.81;;;14.82;100.00
74524;BME280;63074;44.696;10.358;2022-10-26T03:45:13;100536.53;;;14.82;100.00
74524;BME280;63074;44.696;10.358;2022-10-26T03:47:42;100531.75;;;14.67;100.00
74524;BME280;63074;44.696;10.358;2022-10-26T03:50:09;100529.13;;;14.72;100.00
74524;BME280;63074;44.696;10.358;2022-10-26T03:52:34;100530.28;;;14.60;100.00
74524;BME280;63074;44.696;10.358;2022-10-26T03:54:59;100527.03;;;14.79;100.00
74524;BME280;63074;44.696;10.358;2022-10-26T03:57:25;100525.06;;;14.75;100.00
74524;BME280;63074;44.696;10.358;2022-10-26T03:59:50;100521.84;;;14.78;100.00
74524;BME280;63074;44.696;10.358;2022-10-26T04:02:15;100517.66;;;14.87;100.00
74524;BME280;63074;44.696;10.358;2022-10-26T04:04:41;100524.41;;;14.29;100.00
74524;BME280;63074;44.696;10.358;2022-10-26T04:07:07;100517.75;;;14.53;100.00
74524;BME280;63074;44.696;10.358;2022-10-26T04:09:32;100524.75;;;14.33;100.00
74524;BME280;63074;44.696;10.358;2022-10-26T04:11:57;100519.78;;;14.63;100.00
74524;BME280;63074;44.696;10.358;2022-10-26T04:14:23;100522.13;;;14.21;100.00
74524;BME280;63074;44.696;10.358;2022-10-26T04:16:48;100535.38;;;14.56;100.00
74524;BME280;63074;44.696;10.358;2022-10-26T04:19:13;100529.53;;;14.42;100.00
74524;BME280;63074;44.696;10.358;2022-10-26T04:21:39;100529.47;;;14.81;100.00
74524;BME280;63074;44.696;10.358;2022-10-26T04:24:04;100541.59;;;14.57;100.00
74524;BME280;63074;44.696;10.358;2022-10-26T04:26:30;100536.91;;;14.69;100.00
74524;BME280;63074;44.696;10.358;2022-10-26T04:28:55;100541.28;;;14.75;100.00
74524;BME280;63074;44.696;10.358;2022-10-26T04:31:20;100537.84;;;14.79;100.00
74524;BME280;63074;44.696;10.358;2022-10-26T04:33:46;100531.25;;;14.70;100.00
74524;BME280;63074;44.696;10.358;2022-10-26T04:36:11;100531.75;;;14.67;100.00
74524;BME280;63074;44.696;10.358;2022-10-26T04:38:37;100532.06;;;14.71;100.00
74524;BME280;63074;44.696;10.358;2022-10-26T04:41:02;100528.59;;;14.75;100.00
74524;BME280;63074;44.696;10.358;2022-10-26T04:43:27;100524.81;;;14.76;100.00
74524;BME280;63074;44.696;10.358;2022-10-26T04:45:56;100513.25;;;14.59;100.00
74524;BME280;63074;44.696;10.358;2022-10-26T04:48:23;100520.13;;;14.50;100.00
74524;BME280;63074;44.696;10.358;2022-10-26T04:50:48;100527.50;;;14.55;100.00
74524;BME280;63074;44.696;10.358;2022-10-26T04:53:13;100528.84;;;14.35;100.00
74524;BME280;63074;44.696;10.358;2022-10-26T04:55:39;100529.66;;;14.19;100.00
74524;BME280;63074;44.696;10.358;2022-10-26T04:58:04;100542.13;;;14.20;100.00
74524;BME280;63074;44.696;10.358;2022-10-26T05:00:30;100527.28;;;14.23;100.00
74524;BME280;63074;44.696;10.358;2022-10-26T05:03:00;100530.47;;;14.19;100.00
74524;BME280;63074;44.696;10.358;2022-10-26T05:05:27;100528.34;;;14.22;100.00
74524;BME280;63074;44.696;10.358;2022-10-26T05:07:56;100535.56;;;14.33;100.00
74524;BME280;63074;44.696;10.358;2022-10-26T05:10:23;100534.75;;;14.32;100.00
74524;BME280;63074;44.696;10.358;2022-10-26T05:12:55;100531.94;;;14.44;100.00
74524;BME280;63074;44.696;10.358;2022-10-26T05:15:20;100533.28;;;14.41;100.00
74524;BME280;63074;44.696;10.358;2022-10-26T05:17:46;100540.81;;;14.39;100.00
74524;BME280;63074;44.696;10.358;2022-10-26T05:20:12;100536.22;;;14.23;100.00
74524;BME280;63074;44.696;10.358;2022-10-26T05:22:41;100535.56;;;14.16;100.00
74524;BME280;63074;44.696;10.358;2022-10-26T05:25:07;100545.38;;;14.22;100.00
74524;BME280;63074;44.696;10.358;2022-10-26T05:27:32;100538.44;;;14.26;100.00
74524;BME280;63074;44.696;10.358;2022-10-26T05:29:58;100549.28;;;14.43;100.00
74524;BME280;63074;44.696;10.358;2022-10-26T05:32:23;100541.63;;;14.23;100.00
74524;BME280;63074;44.696;10.358;2022-10-26T05:34:49;100550.78;;;14.22;100.00
74524;BME280;63074;44.696;10.358;2022-10-26T05:37:15;100553.75;;;14.20;100.00
74524;BME280;63074;44.696;10.358;2022-10-26T05:39:41;100544.75;;;14.32;100.00
74524;BME280;63074;44.696;10.358;2022-10-26T05:42:07;100554.31;;;14.23;100.00
74524;BME280;63074;44.696;10.358;2022-10-26T05:44:32;100559.16;;;14.37;100.00
74524;BME280;63074;44.696;10.358;2022-10-26T05:46:58;100558.75;;;14.45;100.00
74524;BME280;63074;44.696;10.358;2022-10-26T05:49:23;100559.81;;;14.44;100.00
74524;BME280;63074;44.696;10.358;2022-10-26T05:51:48;100558.19;;;14.43;100.00
74524;BME280;63074;44.696;10.358;2022-10-26T05:54:14;100549.66;;;14.35;100.00
74524;BME280;63074;44.696;10.358;2022-10-26T05:56:40;100560.91;;;14.43;100.00
74524;BME280;63074;44.696;10.358;2022-10-26T05:59:13;100565.75;;;14.41;100.00
74524;BME280;63074;44.696;10.358;2022-10-26T06:01:56;100568.50;;;14.46;100.00
74524;BME280;63074;44.696;10.358;2022-10-26T06:06:53;100583.25;;;14.39;100.00
74524;BME280;63074;44.696;10.358;2022-10-26T06:09:19;100579.16;;;14.36;100.00
74524;BME280;63074;44.696;10.358;2022-10-26T06:11:45;100579.06;;;14.48;100.00
74524;BME280;63074;44.696;10.358;2022-10-26T06:14:11;100587.00;;;14.55;100.00
74524;BME280;63074;44.696;10.358;2022-10-26T06:16:58;100588.66;;;14.39;100.00
74524;BME280;63074;44.696;10.358;2022-10-26T06:22:30;100601.59;;;14.37;100.00
74524;BME280;63074;44.696;10.358;2022-10-26T06:30:10;100588.16;;;14.59;100.00
74524;BME280;63074;44.696;10.358;2022-10-26T06:32:37;100591.50;;;14.66;100.00
74524;BME280;63074;44.696;10.358;2022-10-26T06:38:01;100602.50;;;14.98;100.00
74524;BME280;63074;44.696;10.358;2022-10-26T06:40:30;100604.41;;;15.02;100.00
74524;BME280;63074;44.696;10.358;2022-10-26T06:42:56;100610.28;;;15.16;100.00
74524;BME280;63074;44.696;10.358;2022-10-26T06:45:22;100609.34;;;15.05;100.00
74524;BME280;63074;44.696;10.358;2022-10-26T06:47:56;100616.25;;;14.58;100.00
74524;BME280;63074;44.696;10.358;2022-10-26T06:53:13;100622.19;;;14.76;100.00
74524;BME280;63074;44.696;10.358;2022-10-26T06:55:45;100627.41;;;14.61;100.00
74524;BME280;63074;44.696;10.358;2022-10-26T06:58:16;100637.88;;;14.74;100.00
74524;BME280;63074;44.696;10.358;2022-10-26T07:00:43;100630.31;;;14.93;100.00
74524;BME280;63074;44.696;10.358;2022-10-26T07:03:09;100634.97;;;14.98;100.00
74524;BME280;63074;44.696;10.358;2022-10-26T07:05:34;100638.03;;;15.06;100.00
74524;BME280;63074;44.696;10.358;2022-10-26T07:08:00;100634.16;;;15.19;100.00
74524;BME280;63074;44.696;10.358;2022-10-26T07:10:25;100651.34;;;15.30;100.00
74524;BME280;63074;44.696;10.358;2022-10-26T07:12:51;100645.28;;;15.44;100.00
74524;BME280;63074;44.696;10.358;2022-10-26T07:15:16;100638.72;;;15.57;100.00
74524;BME280;63074;44.696;10.358;2022-10-26T07:17:45;100642.66;;;15.71;100.00
74524;BME280;63074;44.696;10.358;2022-10-26T07:20:13;100645.53;;;15.86;100.00
74524;BME280;63074;44.696;10.358;2022-10-26T07:22:39;100645.50;;;16.13;100.00
74524;BME280;63074;44.696;10.358;2022-10-26T07:25:05;100659.06;;;16.13;100.00
74524;BME280;63074;44.696;10.358;2022-10-26T07:27:32;100646.19;;;16.31;100.00
74524;BME280;63074;44.696;10.358;2022-10-26T07:29:57;100653.31;;;16.37;100.00
74524;BME280;63074;44.696;10.358;2022-10-26T07:32:23;100636.81;;;16.43;100.00
74524;BME280;63074;44.696;10.358;2022-10-26T07:34:48;100636.06;;;16.53;100.00
74524;BME280;63074;44.696;10.358;2022-10-26T07:37:13;100642.72;;;16.67;100.00
74524;BME280;63074;44.696;10.358;2022-10-26T07:39:39;100646.28;;;16.78;100.00
74524;BME280;63074;44.696;10.358;2022-10-26T07:42:04;100641.44;;;16.85;100.00
74524;BME280;63074;44.696;10.358;2022-10-26T07:44:30;100643.41;;;16.95;100.00
74524;BME280;63074;44.696;10.358;2022-10-26T07:46:56;100636.16;;;17.10;100.00
74524;BME280;63074;44.696;10.358;2022-10-26T07:49:22;100630.72;;;17.10;100.00
74524;BME280;63074;44.696;10.358;2022-10-26T07:51:47;100639.16;;;17.14;100.00
74524;BME280;63074;44.696;10.358;2022-10-26T07:54:13;100644.41;;;17.26;100.00
74524;BME280;63074;44.696;10.358;2022-10-26T07:56:38;100642.78;;;17.35;100.00
74524;BME280;63074;44.696;10.358;2022-10-26T07:59:03;100647.69;;;17.38;100.00
74524;BME280;63074;44.696;10.358;2022-10-26T08:01:29;100655.31;;;17.41;100.00
74524;BME280;63074;44.696;10.358;2022-10-26T08:03:54;100652.31;;;17.37;100.00
74524;BME280;63074;44.696;10.358;2022-10-26T08:06:21;100653.69;;;17.45;100.00
74524;BME280;63074;44.696;10.358;2022-10-26T08:08:48;100653.16;;;17.48;100.00
74524;BME280;63074;44.696;10.358;2022-10-26T08:11:14;100657.50;;;17.44;100.00
74524;BME280;63074;44.696;10.358;2022-10-26T08:13:40;100669.75;;;17.51;100.00
74524;BME280;63074;44.696;10.358;2022-10-26T08:16:05;100669.84;;;17.14;100.00
74524;BME280;63074;44.696;10.358;2022-10-26T08:18:31;100686.44;;;17.18;100.00
74524;BME280;63074;44.696;10.358;2022-10-26T08:21:05;100669.97;;;17.40;100.00
74524;BME280;63074;44.696;10.358;2022-10-26T08:23:31;100662.09;;;17.43;100.00
74524;BME280;63074;44.696;10.358;2022-10-26T08:25:58;100667.28;;;17.45;100.00
74524;BME280;63074;44.696;10.358;2022-10-26T08:28:24;100672.00;;;17.70;100.00
74524;BME280;63074;44.696;10.358;2022-10-26T08:30:49;100674.41;;;17.56;100.00
74524;BME280;63074;44.696;10.358;2022-10-26T08:33:14;100671.47;;;17.73;100.00
74524;BME280;63074;44.696;10.358;2022-10-26T08:35:40;100664.09;;;17.58;100.00
74524;BME280;63074;44.696;10.358;2022-10-26T08:38:05;100669.84;;;17.72;100.00
74524;BME280;63074;44.696;10.358;2022-10-26T08:40:33;100669.63;;;17.88;100.00
74524;BME280;63074;44.696;10.358;2022-10-26T08:43:14;100669.31;;;17.75;100.00
74524;BME280;63074;44.696;10.358;2022-10-26T08:45:55;100662.53;;;17.77;100.00
74524;BME280;63074;44.696;10.358;2022-10-26T08:48:29;100653.31;;;17.99;100.00
74524;BME280;63074;44.696;10.358;2022-10-26T08:51:02;100663.91;;;17.80;100.00
74524;BME280;63074;44.696;10.358;2022-10-26T08:58:40;100654.72;;;18.42;100.00
74524;BME280;63074;44.696;10.358;2022-10-26T09:01:08;100656.88;;;18.25;100.00
74524;BME280;63074;44.696;10.358;2022-10-26T09:03:34;100657.97;;;18.34;100.00
74524;BME280;63074;44.696;10.358;2022-10-26T09:06:33;100658.78;;;18.49;100.00
74524;BME280;63074;44.696;10.358;2022-10-26T09:09:12;100666.69;;;18.41;100.00
74524;BME280;63074;44.696;10.358;2022-10-26T09:12:02;100671.03;;;18.27;100.00
74524;BME280;63074;44.696;10.358;2022-10-26T09:20:31;100669.66;;;18.80;100.00
74524;BME280;63074;44.696;10.358;2022-10-26T09:25:37;100659.91;;;18.74;100.00
74524;BME280;63074;44.696;10.358;2022-10-26T09:28:04;100660.69;;;18.84;100.00
74524;BME280;63074;44.696;10.358;2022-10-26T09:30:33;100655.22;;;18.84;100.00
74524;BME280;63074;44.696;10.358;2022-10-26T09:33:21;100655.22;;;18.89;100.00
74524;BME280;63074;44.696;10.358;2022-10-26T09:35:51;100661.22;;;18.97;100.00
74524;BME280;63074;44.696;10.358;2022-10-26T09:38:27;100668.03;;;18.79;100.00
74524;BME280;63074;44.696;10.358;2022-10-26T09:41:05;100664.75;;;18.92;100.00
74524;BME280;63074;44.696;10.358;2022-10-26T09:43:42;100664.69;;;19.17;100.00
74524;BME280;63074;44.696;10.358;2022-10-26T09:46:16;100669.09;;;19.03;100.00
74524;BME280;63074;44.696;10.358;2022-10-26T09:48:49;100671.56;;;19.00;100.00
74524;BME280;63074;44.696;10.358;2022-10-26T09:51:17;100672.38;;;19.00;100.00
74524;BME280;63074;44.696;10.358;2022-10-26T09:53:44;100668.09;;;19.59;100.00
74524;BME280;63074;44.696;10.358;2022-10-26T09:56:11;100671.66;;;19.44;100.00
74524;BME280;63074;44.696;10.358;2022-10-26T09:58:51;100669.00;;;19.34;100.00
74524;BME280;63074;44.696;10.358;2022-10-26T10:04:21;100680.66;;;19.54;100.00
74524;BME280;63074;44.696;10.358;2022-10-26T10:06:52;100677.53;;;19.81;100.00
74524;BME280;63074;44.696;10.358;2022-10-26T10:09:30;100664.81;;;20.06;100.00
74524;BME280;63074;44.696;10.358;2022-10-26T10:12:00;100670.28;;;20.06;100.00
74524;BME280;63074;44.696;10.358;2022-10-26T10:14:27;100666.84;;;19.90;100.00
74524;BME280;63074;44.696;10.358;2022-10-26T10:16:56;100663.69;;;20.12;100.00
74524;BME280;63074;44.696;10.358;2022-10-26T10:21:53;100665.47;;;20.27;100.00
74524;BME280;63074;44.696;10.358;2022-10-26T10:24:32;100664.47;;;20.51;100.00
74524;BME280;63074;44.696;10.358;2022-10-26T10:29:40;100656.50;;;21.13;100.00
74524;BME280;63074;44.696;10.358;2022-10-26T10:32:16;100648.81;;;21.39;100.00
74524;BME280;63074;44.696;10.358;2022-10-26T10:34:42;100662.28;;;20.82;100.00
74524;BME280;63074;44.696;10.358;2022-10-26T10:37:44;100659.59;;;21.06;100.00
74524;BME280;63074;44.696;10.358;2022-10-26T10:40:19;100657.94;;;21.53;100.00
74524;BME280;63074;44.696;10.358;2022-10-26T10:42:45;100663.44;;;21.29;100.00
74524;BME280;63074;44.696;10.358;2022-10-26T10:45:25;100662.44;;;20.67;100.00
74524;BME280;63074;44.696;10.358;2022-10-26T10:48:04;100663.59;;;21.14;100.00
74524;BME280;63074;44.696;10.358;2022-10-26T10:50:36;100653.16;;;21.82;100.00
74524;BME280;63074;44.696;10.358;2022-10-26T10:53:34;100656.13;;;21.25;100.00
74524;BME280;63074;44.696;10.358;2022-10-26T11:01:20;100653.06;;;21.69;100.00
74524;BME280;63074;44.696;10.358;2022-10-26T11:06:43;100641.00;;;22.12;100.00
74524;BME280;63074;44.696;10.358;2022-10-26T11:09:10;100649.28;;;22.07;100.00
74524;BME280;63074;44.696;10.358;2022-10-26T11:11:44;100642.44;;;22.56;100.00
74524;BME280;63074;44.696;10.358;2022-10-26T11:16:43;100640.34;;;22.34;100.00
74524;BME280;63074;44.696;10.358;2022-10-26T11:19:28;100641.41;;;22.84;100.00
74524;BME280;63074;44.696;10.358;2022-10-26T11:21:55;100645.66;;;22.90;100.00
74524;BME280;63074;44.696;10.358;2022-10-26T11:24:29;100634.63;;;23.37;100.00
74524;BME280;63074;44.696;10.358;2022-10-26T11:27:01;100637.69;;;22.29;100.00
74524;BME280;63074;44.696;10.358;2022-10-26T11:34:57;100629.84;;;23.29;100.00
74524;BME280;63074;44.696;10.358;2022-10-26T11:42:54;100625.28;;;24.54;100.00
74524;BME280;63074;44.696;10.358;2022-10-26T11:45:25;100622.22;;;24.25;96.47
74524;BME280;63074;44.696;10.358;2022-10-26T11:50:40;100618.00;;;25.20;93.49
74524;BME280;63074;44.696;10.358;2022-10-26T11:55:39;100629.53;;;30.67;65.93
74524;BME280;63074;44.696;10.358;2022-10-26T11:58:08;100624.69;;;31.11;64.59
74524;BME280;63074;44.696;10.358;2022-10-26T12:00:34;100623.09;;;32.58;57.53
74524;BME280;63074;44.696;10.358;2022-10-26T12:03:11;100632.03;;;33.95;50.78
74524;BME280;63074;44.696;10.358;2022-10-26T12:08:13;100635.94;;;34.24;47.21
74524;BME280;63074;44.696;10.358;2022-10-26T12:10:42;100644.41;;;33.41;51.21
74524;BME280;63074;44.696;10.358;2022-10-26T12:16:11;100639.63;;;29.51;57.27
74524;BME280;63074;44.696;10.358;2022-10-26T12:18:43;100637.25;;;33.70;49.70
74524;BME280;63074;44.696;10.358;2022-10-26T12:21:10;100639.34;;;35.29;45.12
74524;BME280;63074;44.696;10.358;2022-10-26T12:24:01;100642.28;;;34.99;45.11
74524;BME280;63074;44.696;10.358;2022-10-26T12:26:38;100636.88;;;35.16;42.81
74524;BME280;63074;44.696;10.358;2022-10-26T12:34:01;100634.53;;;30.93;53.42
74524;BME280;63074;44.696;10.358;2022-10-26T12:36:52;100629.47;;;35.42;43.99
74524;BME280;63074;44.696;10.358;2022-10-26T12:39:40;100626.72;;;35.52;43.35
74524;BME280;63074;44.696;10.358;2022-10-26T12:52:52;100630.38;;;35.60;40.94
74524;BME280;63074;44.696;10.358;2022-10-26T13:00:26;100629.69;;;32.92;44.65
74524;BME280;63074;44.696;10.358;2022-10-26T13:08:03;100621.97;;;37.11;39.17
74524;BME280;63074;44.696;10.358;2022-10-26T13:10:31;100614.09;;;32.45;47.86
74524;BME280;63074;44.696;10.358;2022-10-26T13:12:58;100618.16;;;31.04;50.87
74524;BME280;63074;44.696;10.358;2022-10-26T13:15:32;100623.22;;;34.27;45.17
74524;BME280;63074;44.696;10.358;2022-10-26T13:20:30;100625.81;;;34.83;41.08
74524;BME280;63074;44.696;10.358;2022-10-26T13:22:56;100626.69;;;33.83;45.52
74524;BME280;63074;44.696;10.358;2022-10-26T13:25:29;100639.34;;;33.77;43.24
74524;BME280;63074;44.696;10.358;2022-10-26T13:28:01;100632.72;;;34.56;42.22
74524;BME280;63074;44.696;10.358;2022-10-26T13:30:34;100629.94;;;36.45;38.60
74524;BME280;63074;44.696;10.358;2022-10-26T13:33:10;100634.47;;;33.70;43.12
74524;BME280;63074;44.696;10.358;2022-10-26T13:35:40;100625.56;;;34.21;42.73
74524;BME280;63074;44.696;10.358;2022-10-26T13:38:09;100626.41;;;31.00;50.27
74524;BME280;63074;44.696;10.358;2022-10-26T13:40:37;100620.09;;;32.24;47.78
74524;BME280;63074;44.696;10.358;2022-10-26T13:43:05;100630.88;;;34.30;42.17
74524;BME280;63074;44.696;10.358;2022-10-26T13:45:54;100627.44;;;33.80;42.69
74524;BME280;63074;44.696;10.358;2022-10-26T13:48:37;100631.59;;;35.66;39.96
74524;BME280;63074;44.696;10.358;2022-10-26T13:51:12;100629.34;;;34.36;42.59
74524;BME280;63074;44.696;10.358;2022-10-26T13:53:59;100627.38;;;34.40;42.06
74524;BME280;63074;44.696;10.358;2022-10-26T13:58:57;100628.25;;;34.47;42.25
74524;BME280;63074;44.696;10.358;2022-10-26T14:01:25;100626.84;;;31.02;48.51
74524;BME280;63074;44.696;10.358;2022-10-26T14:03:52;100622.38;;;30.82;49.27
74524;BME280;63074;44.696;10.358;2022-10-26T14:06:36;100625.06;;;34.49;41.74
74524;BME280;63074;44.696;10.358;2022-10-26T14:09:12;100630.47;;;34.31;42.22
74524;BME280;63074;44.696;10.358;2022-10-26T14:11:52;100631.53;;;30.11;51.13
74524;BME280;63074;44.696;10.358;2022-10-26T14:14:24;100630.63;;;28.81;56.50
74524;BME280;63074;44.696;10.358;2022-10-26T14:16:51;100621.16;;;30.08;53.03
74524;BME280;63074;44.696;10.358;2022-10-26T14:19:28;100626.00;;;28.40;59.04
74524;BME280;63074;44.696;10.358;2022-10-26T14:21:55;100624.88;;;30.28;53.54
74524;BME280;63074;44.696;10.358;2022-10-26T14:24:25;100626.41;;;28.63;59.12
74524;BME280;63074;44.696;10.358;2022-10-26T14:26:51;100632.94;;;29.04;59.23
74524;BME280;63074;44.696;10.358;2022-10-26T14:29:22;100633.56;;;28.31;59.21
74524;BME280;63074;44.696;10.358;2022-10-26T14:31:49;100633.63;;;29.25;58.91
74524;BME280;63074;44.696;10.358;2022-10-26T14:34:16;100637.38;;;30.21;55.20
74524;BME280;63074;44.696;10.358;2022-10-26T14:36:57;100634.91;;;30.76;53.72
74524;BME280;63074;44.696;10.358;2022-10-26T14:41:57;100637.50;;;28.75;60.58
74524;BME280;63074;44.696;10.358;2022-10-26T14:44:24;100636.59;;;27.55;65.99
74524;BME280;63074;44.696;10.358;2022-10-26T14:46:50;100639.00;;;28.28;65.03